Terminal Aerodrome Forecast
Issued by NWS Pocatello, ID

Home | Current Version | Previous Version | Text Only | Print | Product List | Glossary On
Versions: 1 2 3 4 5 6 7 8 9 10 11 12 13 14 15 16 17 18 19 20 21 22 23 24 25
000
FTUS45 KPIH 211100
TAFIDA
TAF
KIDA 211120Z 2112/2212 20015G25KT P6SM VCSH OVC005
      TEMPO 2112/2116 3SM BR
     FM211700 22025G35KT P6SM VCSH SCT007 OVC015
     FM220200 22015KT P6SM VCSH BKN015 OVC025
     FM220600 24008KT P6SM OVC015=

USA.gov is the U.S. government's official web portal to all federal, state and local government web resources and services.